sensor_id;sensor_type;location;lat;lon;timestamp;temperature;humidity
51486;DHT22;37565;51.352;6.412;2022-12-05T16:19:39;18.10;99.90
51486;DHT22;37565;51.352;6.412;2022-12-05T16:22:13;18.10;99.90
51486;DHT22;37565;51.352;6.412;2022-12-05T16:24:45;18.20;99.90
51486;DHT22;37565;51.352;6.412;2022-12-05T16:27:15;18.20;99.90
51486;DHT22;37565;51.352;6.412;2022-12-05T16:29:43;18.20;99.90
51486;DHT22;37565;51.352;6.412;2022-12-05T16:32:17;18.30;99.90
51486;DHT22;37565;51.352;6.412;2022-12-05T16:34:49;18.40;99.90
51486;DHT22;37565;51.352;6.412;2022-12-05T16:37:19;18.50;99.90
51486;DHT22;37565;51.352;6.412;2022-12-05T16:39:48;18.60;99.90
51486;DHT22;37565;51.352;6.412;2022-12-05T16:42:23;18.60;99.90
51486;DHT22;37565;51.352;6.412;2022-12-05T16:44:56;18.70;99.90
51486;DHT22;37565;51.352;6.412;2022-12-05T16:47:54;18.70;99.90
51486;DHT22;37565;51.352;6.412;2022-12-05T16:50:28;18.70;99.90
51486;DHT22;37565;51.352;6.412;2022-12-05T16:55:44;18.80;99.90
51486;DHT22;37565;51.352;6.412;2022-12-05T16:58:19;18.80;99.90
51486;DHT22;37565;51.352;6.412;2022-12-05T17:00:48;18.80;99.90
51486;DHT22;37565;51.352;6.412;2022-12-05T17:03:17;18.70;99.90
51486;DHT22;37565;51.352;6.412;2022-12-05T17:06:01;18.70;99.90
51486;DHT22;37565;51.352;6.412;2022-12-05T17:08:29;18.70;99.90
51486;DHT22;37565;51.352;6.412;2022-12-05T17:10:58;18.70;99.90
51486;DHT22;37565;51.352;6.412;2022-12-05T17:13:27;18.70;99.90
51486;DHT22;37565;51.352;6.412;2022-12-05T17:15:56;18.60;99.90
51486;DHT22;37565;51.352;6.412;2022-12-05T17:18:24;18.60;99.90
51486;DHT22;37565;51.352;6.412;2022-12-05T17:20:59;18.70;99.90
51486;DHT22;37565;51.352;6.412;2022-12-05T17:23:29;18.60;99.90
51486;DHT22;37565;51.352;6.412;2022-12-05T17:25:58;18.60;99.90
51486;DHT22;37565;51.352;6.412;2022-12-05T17:28:26;18.60;99.90
51486;DHT22;37565;51.352;6.412;2022-12-05T17:30:54;18.60;99.90
51486;DHT22;37565;51.352;6.412;2022-12-05T17:33:22;18.60;99.90
51486;DHT22;37565;51.352;6.412;2022-12-05T17:35:50;18.60;99.90
51486;DHT22;37565;51.352;6.412;2022-12-05T17:38:18;18.60;99.90
51486;DHT22;37565;51.352;6.412;2022-12-05T17:40:48;18.60;99.90
51486;DHT22;37565;51.352;6.412;2022-12-05T17:43:16;18.60;99.90
51486;DHT22;37565;51.352;6.412;2022-12-05T17:45:51;18.60;99.90
51486;DHT22;37565;51.352;6.412;2022-12-05T17:48:20;18.60;99.90
51486;DHT22;37565;51.352;6.412;2022-12-05T17:50:48;18.50;99.90
51486;DHT22;37565;51.352;6.412;2022-12-05T17:53:19;18.50;99.90
51486;DHT22;37565;51.352;6.412;2022-12-05T17:55:49;18.40;99.90
51486;DHT22;37565;51.352;6.412;2022-12-05T17:58:17;18.50;99.90
51486;DHT22;37565;51.352;6.412;2022-12-05T18:00:45;18.50;99.90
51486;DHT22;37565;51.352;6.412;2022-12-05T18:03:15;18.40;99.90
51486;DHT22;37565;51.352;6.412;2022-12-05T18:05:44;18.40;99.90
51486;DHT22;37565;51.352;6.412;2022-12-05T18:08:13;18.40;99.90
51486;DHT22;37565;51.352;6.412;2022-12-05T18:10:43;18.40;99.90
51486;DHT22;37565;51.352;6.412;2022-12-05T18:13:13;18.40;99.90
51486;DHT22;37565;51.352;6.412;2022-12-05T18:15:41;18.50;99.90
51486;DHT22;37565;51.352;6.412;2022-12-05T18:18:13;18.60;99.90
51486;DHT22;37565;51.352;6.412;2022-12-05T18:20:42;18.60;99.90
51486;DHT22;37565;51.352;6.412;2022-12-05T18:23:10;18.70;99.90
51486;DHT22;37565;51.352;6.412;2022-12-05T18:25:38;18.70;99.90
51486;DHT22;37565;51.352;6.412;2022-12-05T18:28:07;18.80;99.90
51486;DHT22;37565;51.352;6.412;2022-12-05T18:30:36;18.80;99.90
51486;DHT22;37565;51.352;6.412;2022-12-05T18:33:04;18.90;99.90
51486;DHT22;37565;51.352;6.412;2022-12-05T18:35:32;18.90;99.90
51486;DHT22;37565;51.352;6.412;2022-12-05T18:38:09;18.90;99.90
51486;DHT22;37565;51.352;6.412;2022-12-05T18:40:37;18.90;99.90
51486;DHT22;37565;51.352;6.412;2022-12-05T18:43:05;18.90;99.90
51486;DHT22;37565;51.352;6.412;2022-12-05T18:45:33;18.90;99.90
51486;DHT22;37565;51.352;6.412;2022-12-05T18:48:03;18.90;99.90
51486;DHT22;37565;51.352;6.412;2022-12-05T18:50:51;18.90;99.90
51486;DHT22;37565;51.352;6.412;2022-12-05T18:53:19;18.80;99.90
51486;DHT22;37565;51.352;6.412;2022-12-05T18:55:47;18.80;99.90
51486;DHT22;37565;51.352;6.412;2022-12-05T18:58:35;18.80;99.90
51486;DHT22;37565;51.352;6.412;2022-12-05T19:01:09;18.70;99.90
51486;DHT22;37565;51.352;6.412;2022-12-05T19:03:38;18.70;99.90
51486;DHT22;37565;51.352;6.412;2022-12-05T19:06:10;18.70;99.90
51486;DHT22;37565;51.352;6.412;2022-12-05T19:08:39;18.60;99.90
51486;DHT22;37565;51.352;6.412;2022-12-05T19:11:08;18.60;99.90
51486;DHT22;37565;51.352;6.412;2022-12-05T19:13:36;18.60;99.90
51486;DHT22;37565;51.352;6.412;2022-12-05T19:16:06;18.70;99.90
51486;DHT22;37565;51.352;6.412;2022-12-05T19:18:34;18.70;99.90
51486;DHT22;37565;51.352;6.412;2022-12-05T19:21:04;18.60;99.90
51486;DHT22;37565;51.352;6.412;2022-12-05T19:23:32;18.60;99.90
51486;DHT22;37565;51.352;6.412;2022-12-05T19:26:01;18.60;99.90
51486;DHT22;37565;51.352;6.412;2022-12-05T19:28:31;18.60;99.90
51486;DHT22;37565;51.352;6.412;2022-12-05T19:30:59;18.50;99.90
51486;DHT22;37565;51.352;6.412;2022-12-05T19:33:32;18.60;99.90
51486;DHT22;37565;51.352;6.412;2022-12-05T19:36:03;18.70;99.90
51486;DHT22;37565;51.352;6.412;2022-12-05T19:38:33;18.60;99.90
51486;DHT22;37565;51.352;6.412;2022-12-05T19:41:01;18.60;99.90
51486;DHT22;37565;51.352;6.412;2022-12-05T19:43:30;18.50;99.90
51486;DHT22;37565;51.352;6.412;2022-12-05T19:46:01;18.50;99.90
51486;DHT22;37565;51.352;6.412;2022-12-05T19:48:30;18.50;99.90
51486;DHT22;37565;51.352;6.412;2022-12-05T19:50:59;18.50;99.90
51486;DHT22;37565;51.352;6.412;2022-12-05T19:53:30;18.60;99.90
51486;DHT22;37565;51.352;6.412;2022-12-05T19:55:59;18.70;99.90
51486;DHT22;37565;51.352;6.412;2022-12-05T19:58:30;18.80;99.90
51486;DHT22;37565;51.352;6.412;2022-12-05T20:01:06;18.80;99.90
51486;DHT22;37565;51.352;6.412;2022-12-05T20:03:34;18.90;99.90
51486;DHT22;37565;51.352;6.412;2022-12-05T20:06:03;18.90;99.90
51486;DHT22;37565;51.352;6.412;2022-12-05T20:08:34;18.90;99.90
51486;DHT22;37565;51.352;6.412;2022-12-05T20:11:03;18.90;99.90
51486;DHT22;37565;51.352;6.412;2022-12-05T20:13:33;19.00;99.90
51486;DHT22;37565;51.352;6.412;2022-12-05T20:16:13;19.00;99.90
51486;DHT22;37565;51.352;6.412;2022-12-05T20:18:41;19.00;99.90
51486;DHT22;37565;51.352;6.412;2022-12-05T20:21:11;19.00;99.90
51486;DHT22;37565;51.352;6.412;2022-12-05T20:23:41;18.90;99.90
51486;DHT22;37565;51.352;6.412;2022-12-05T20:26:12;18.90;99.90
51486;DHT22;37565;51.352;6.412;2022-12-05T20:28:41;18.80;99.90
51486;DHT22;37565;51.352;6.412;2022-12-05T20:31:11;18.80;99.90
51486;DHT22;37565;51.352;6.412;2022-12-05T20:33:40;18.70;99.90
51486;DHT22;37565;51.352;6.412;2022-12-05T20:36:11;18.70;99.90
51486;DHT22;37565;51.352;6.412;2022-12-05T20:38:41;18.70;99.90
51486;DHT22;37565;51.352;6.412;2022-12-05T20:41:11;18.70;99.90
51486;DHT22;37565;51.352;6.412;2022-12-05T20:43:41;18.70;99.90
51486;DHT22;37565;51.352;6.412;2022-12-05T20:46:11;18.70;99.90
51486;DHT22;37565;51.352;6.412;2022-12-05T20:48:40;18.80;99.90
51486;DHT22;37565;51.352;6.412;2022-12-05T20:51:09;18.70;99.90
51486;DHT22;37565;51.352;6.412;2022-12-05T20:53:38;18.60;99.90
51486;DHT22;37565;51.352;6.412;2022-12-05T20:56:10;18.60;99.90
51486;DHT22;37565;51.352;6.412;2022-12-05T20:58:39;18.70;99.90
51486;DHT22;37565;51.352;6.412;2022-12-05T21:01:09;18.70;99.90
51486;DHT22;37565;51.352;6.412;2022-12-05T21:03:39;18.70;99.90
51486;DHT22;37565;51.352;6.412;2022-12-05T21:06:09;18.80;99.90
51486;DHT22;37565;51.352;6.412;2022-12-05T21:08:38;18.70;99.90
51486;DHT22;37565;51.352;6.412;2022-12-05T21:11:06;18.70;99.90
51486;DHT22;37565;51.352;6.412;2022-12-05T21:13:36;18.60;99.90
51486;DHT22;37565;51.352;6.412;2022-12-05T21:16:08;18.60;99.90
51486;DHT22;37565;51.352;6.412;2022-12-05T21:18:36;18.50;99.90
51486;DHT22;37565;51.352;6.412;2022-12-05T21:21:06;18.60;99.90
51486;DHT22;37565;51.352;6.412;2022-12-05T21:23:34;18.60;99.90
51486;DHT22;37565;51.352;6.412;2022-12-05T21:26:05;18.70;99.90
51486;DHT22;37565;51.352;6.412;2022-12-05T21:28:36;18.80;99.90
51486;DHT22;37565;51.352;6.412;2022-12-05T21:31:06;18.90;99.90
51486;DHT22;37565;51.352;6.412;2022-12-05T21:33:34;18.90;99.90
51486;DHT22;37565;51.352;6.412;2022-12-05T21:36:03;18.90;99.90
51486;DHT22;37565;51.352;6.412;2022-12-05T21:38:31;18.90;99.90
51486;DHT22;37565;51.352;6.412;2022-12-05T21:40:59;19.00;99.90
51486;DHT22;37565;51.352;6.412;2022-12-05T21:43:29;19.00;99.90
51486;DHT22;37565;51.352;6.412;2022-12-05T21:45:58;19.00;99.90
51486;DHT22;37565;51.352;6.412;2022-12-05T21:48:26;19.00;99.90
51486;DHT22;37565;51.352;6.412;2022-12-05T21:50:54;19.00;99.90
51486;DHT22;37565;51.352;6.412;2022-12-05T21:53:23;19.00;99.90
51486;DHT22;37565;51.352;6.412;2022-12-05T21:55:58;18.90;99.90
51486;DHT22;37565;51.352;6.412;2022-12-05T21:58:26;18.90;99.90
51486;DHT22;37565;51.352;6.412;2022-12-05T22:00:54;18.80;99.90
51486;DHT22;37565;51.352;6.412;2022-12-05T22:03:24;18.80;99.90
51486;DHT22;37565;51.352;6.412;2022-12-05T22:05:59;18.80;99.90
51486;DHT22;37565;51.352;6.412;2022-12-05T22:08:27;18.80;99.90
51486;DHT22;37565;51.352;6.412;2022-12-05T22:10:58;18.70;99.90
51486;DHT22;37565;51.352;6.412;2022-12-05T22:13:29;18.70;99.90
51486;DHT22;37565;51.352;6.412;2022-12-05T22:15:58;18.70;99.90
51486;DHT22;37565;51.352;6.412;2022-12-05T22:18:27;18.70;99.90
51486;DHT22;37565;51.352;6.412;2022-12-05T22:20:56;18.70;99.90
51486;DHT22;37565;51.352;6.412;2022-12-05T22:23:24;18.70;99.90
51486;DHT22;37565;51.352;6.412;2022-12-05T22:25:56;18.70;99.90
51486;DHT22;37565;51.352;6.412;2022-12-05T22:28:25;18.70;99.90
51486;DHT22;37565;51.352;6.412;2022-12-05T22:30:53;18.70;99.90
51486;DHT22;37565;51.352;6.412;2022-12-05T22:33:22;18.70;99.90
51486;DHT22;37565;51.352;6.412;2022-12-05T22:35:52;18.70;99.90
51486;DHT22;37565;51.352;6.412;2022-12-05T22:38:22;18.70;99.90
51486;DHT22;37565;51.352;6.412;2022-12-05T22:40:53;18.60;99.90
51486;DHT22;37565;51.352;6.412;2022-12-05T22:43:22;18.50;99.90
51486;DHT22;37565;51.352;6.412;2022-12-05T22:45:50;18.70;99.90
51486;DHT22;37565;51.352;6.412;2022-12-05T22:48:19;18.60;99.90
51486;DHT22;37565;51.352;6.412;2022-12-05T22:50:49;18.60;99.90
51486;DHT22;37565;51.352;6.412;2022-12-05T22:53:20;18.60;99.90
51486;DHT22;37565;51.352;6.412;2022-12-05T22:55:49;18.60;99.90
51486;DHT22;37565;51.352;6.412;2022-12-05T22:58:17;18.60;99.90
51486;DHT22;37565;51.352;6.412;2022-12-05T23:00:45;18.60;99.90
51486;DHT22;37565;51.352;6.412;2022-12-05T23:03:13;18.60;99.90
51486;DHT22;37565;51.352;6.412;2022-12-05T23:05:43;18.60;99.90
51486;DHT22;37565;51.352;6.412;2022-12-05T23:08:11;18.60;99.90
51486;DHT22;37565;51.352;6.412;2022-12-05T23:10:41;18.60;99.90
51486;DHT22;37565;51.352;6.412;2022-12-05T23:13:09;18.50;99.90
51486;DHT22;37565;51.352;6.412;2022-12-05T23:15:37;18.50;99.90
51486;DHT22;37565;51.352;6.412;2022-12-05T23:18:05;18.50;99.90
51486;DHT22;37565;51.352;6.412;2022-12-05T23:20:35;18.50;99.90
51486;DHT22;37565;51.352;6.412;2022-12-05T23:23:03;18.60;99.90
51486;DHT22;37565;51.352;6.412;2022-12-05T23:25:31;18.50;99.90
51486;DHT22;37565;51.352;6.412;2022-12-05T23:28:00;18.50;99.90
51486;DHT22;37565;51.352;6.412;2022-12-05T23:30:28;18.50;99.90
51486;DHT22;37565;51.352;6.412;2022-12-05T23:32:56;18.60;99.90
51486;DHT22;37565;51.352;6.412;2022-12-05T23:35:24;18.70;99.90
51486;DHT22;37565;51.352;6.412;2022-12-05T23:37:52;18.60;99.90
51486;DHT22;37565;51.352;6.412;2022-12-05T23:40:20;18.50;99.90
51486;DHT22;37565;51.352;6.412;2022-12-05T23:42:48;18.60;99.90
51486;DHT22;37565;51.352;6.412;2022-12-05T23:45:17;18.50;99.90
51486;DHT22;37565;51.352;6.412;2022-12-05T23:47:45;18.60;99.90
51486;DHT22;37565;51.352;6.412;2022-12-05T23:50:13;18.60;99.90
51486;DHT22;37565;51.352;6.412;2022-12-05T23:52:41;18.60;99.90
51486;DHT22;37565;51.352;6.412;2022-12-05T23:55:09;18.50;99.90
51486;DHT22;37565;51.352;6.412;2022-12-05T23:57:37;18.60;99.90
